Time;durP1;ratioP1;P1;durP2;ratioP2;P2;SDS_P1;SDS_P2;PMS_P1;PMS_P2;Temp;Humidity;BMP_temperature;BMP_pressure;BME280_temperature;BME280_humidity;BME280_pressure;Samples;Min_cycle;Max_cycle;Signal;HPM_P1;HPM_P2
2023/07/19 00:00:38;;;;;;;5.00;1.55;;;;;;;;;;5092720;28;20490;-79
2023/07/19 00:03:03;;;;;;;2.65;1.05;;;;;;;;;;5092550;28;20059;-78
2023/07/19 00:05:29;;;;;;;3.03;1.48;;;;;;;;;;5092619;28;20028;-78
2023/07/19 00:07:54;;;;;;;2.40;1.50;;;;;;;;;;5094094;28;20070;-79
2023/07/19 00:10:20;;;;;;;3.70;1.52;;;;;;;;;;5092581;28;20427;-79
2023/07/19 00:12:45;;;;;;;1.45;1.15;;;;;;;;;;5094039;28;20039;-78
2023/07/19 00:15:10;;;;;;;2.65;1.45;;;;;;;;;;5092758;28;20103;-78
2023/07/19 00:17:36;;;;;;;2.00;1.60;;;;;;;;;;5093613;28;20024;-78
2023/07/19 00:20:02;;;;;;;3.10;1.40;;;;;;;;;;5094118;28;20039;-78
2023/07/19 00:22:27;;;;;;;2.55;1.40;;;;;;;;;;5092419;28;20032;-78
2023/07/19 00:24:53;;;;;;;4.20;1.67;;;;;;;;;;5092903;28;20028;-79
2023/07/19 00:27:18;;;;;;;2.80;1.33;;;;;;;;;;5092299;28;20398;-79
2023/07/19 00:29:44;;;;;;;1.98;1.52;;;;;;;;;;5092761;28;20034;-78
2023/07/19 00:32:09;;;;;;;3.15;1.90;;;;;;;;;;5075365;28;20039;-79
2023/07/19 00:34:34;;;;;;;2.15;1.50;;;;;;;;;;5093618;28;20378;-79
2023/07/19 00:37:00;;;;;;;1.60;1.35;;;;;;;;;;5093485;28;20040;-78
2023/07/19 00:39:25;;;;;;;3.42;1.50;;;;;;;;;;5092558;28;20525;-78
2023/07/19 00:41:51;;;;;;;2.95;1.60;;;;;;;;;;5093426;28;20035;-78
2023/07/19 00:44:16;;;;;;;3.50;1.20;;;;;;;;;;5093657;28;20028;-78
2023/07/19 00:46:42;;;;;;;2.85;1.50;;;;;;;;;;5093385;28;20028;-78
2023/07/19 00:49:09;;;;;;;3.13;1.40;;;;;;;;;;5092350;28;20029;-80
2023/07/19 00:51:34;;;;;;;1.63;1.38;;;;;;;;;;5092468;28;20051;-78
2023/07/19 00:54:00;;;;;;;3.13;1.23;;;;;;;;;;5092056;28;20032;-78
2023/07/19 00:56:26;;;;;;;2.30;1.08;;;;;;;;;;5093541;28;20028;-78
2023/07/19 00:58:52;;;;;;;1.55;1.30;;;;;;;;;;5091947;28;20546;-78
2023/07/19 01:01:20;;;;;;;1.80;1.38;;;;;;;;;;5093553;28;20475;-78
2023/07/19 01:03:45;;;;;;;2.08;1.55;;;;;;;;;;5075000;28;20023;-78
2023/07/19 01:06:11;;;;;;;1.27;1.00;;;;;;;;;;5091939;28;20039;-79
2023/07/19 01:08:36;;;;;;;1.63;1.20;;;;;;;;;;5093459;28;20035;-79
2023/07/19 01:11:02;;;;;;;2.40;1.40;;;;;;;;;;5091854;28;20024;-79
2023/07/19 01:13:27;;;;;;;4.03;1.25;;;;;;;;;;5091892;28;20058;-79
2023/07/19 01:15:53;;;;;;;1.50;1.40;;;;;;;;;;5091915;28;20500;-79
2023/07/19 01:18:19;;;;;;;3.10;1.50;;;;;;;;;;5093414;28;20028;-79
2023/07/19 01:20:44;;;;;;;1.75;1.30;;;;;;;;;;5092102;28;20032;-79
2023/07/19 01:23:10;;;;;;;3.08;1.23;;;;;;;;;;5093333;28;20028;-79
2023/07/19 01:25:35;;;;;;;2.00;1.10;;;;;;;;;;5093311;28;20032;-79
2023/07/19 01:28:01;;;;;;;1.85;1.45;;;;;;;;;;5093451;28;20051;-78
2023/07/19 01:30:26;;;;;;;1.67;1.15;;;;;;;;;;5092938;28;20116;-79
2023/07/19 01:32:51;;;;;;;1.80;1.10;;;;;;;;;;5092986;28;20077;-78
2023/07/19 01:35:17;;;;;;;1.45;1.25;;;;;;;;;;5092234;28;20063;-78
2023/07/19 01:37:42;;;;;;;1.70;1.20;;;;;;;;;;5092025;28;20020;-78
2023/07/19 01:40:11;;;;;;;3.08;1.50;;;;;;;;;;5094653;28;20035;-78
2023/07/19 01:42:36;;;;;;;1.58;1.35;;;;;;;;;;5095524;28;20110;-79
2023/07/19 01:45:01;;;;;;;3.97;1.35;;;;;;;;;;5095588;28;20158;-79
2023/07/19 01:47:27;;;;;;;1.42;1.27;;;;;;;;;;5095497;28;20049;-79
2023/07/19 01:49:53;;;;;;;2.55;1.35;;;;;;;;;;5078306;28;20019;-79
2023/07/19 01:52:18;;;;;;;1.20;1.10;;;;;;;;;;5095015;28;20064;-79
2023/07/19 01:54:43;;;;;;;2.53;1.27;;;;;;;;;;5095112;28;20034;-79
2023/07/19 01:57:10;;;;;;;3.20;1.50;;;;;;;;;;5096093;28;20400;-79
2023/07/19 01:59:36;;;;;;;2.40;1.40;;;;;;;;;;5095302;28;20028;-78
2023/07/19 02:02:01;;;;;;;2.03;1.40;;;;;;;;;;5095252;28;20042;-79
2023/07/19 02:04:27;;;;;;;2.08;1.67;;;;;;;;;;5094786;28;20032;-78
2023/07/19 02:06:53;;;;;;;1.25;1.20;;;;;;;;;;5094885;28;20103;-79
2023/07/19 02:09:18;;;;;;;2.20;1.50;;;;;;;;;;5095103;28;20032;-78
2023/07/19 02:11:44;;;;;;;1.83;1.50;;;;;;;;;;5095064;28;20059;-78
2023/07/19 02:14:09;;;;;;;2.55;1.40;;;;;;;;;;5096152;28;20054;-79
2023/07/19 02:16:35;;;;;;;4.25;1.48;;;;;;;;;;5094829;28;20511;-78
2023/07/19 02:19:03;;;;;;;2.08;1.40;;;;;;;;;;5096130;28;20112;-79
2023/07/19 02:21:28;;;;;;;1.83;1.40;;;;;;;;;;5095577;28;20031;-78
2023/07/19 02:23:54;;;;;;;2.25;1.50;;;;;;;;;;5094877;28;20153;-79
2023/07/19 02:26:20;;;;;;;1.95;1.55;;;;;;;;;;5094708;28;20463;-79
2023/07/19 02:28:45;;;;;;;3.90;1.25;;;;;;;;;;5094589;28;20556;-79
2023/07/19 02:31:10;;;;;;;2.58;1.45;;;;;;;;;;5095873;28;20039;-79
2023/07/19 02:33:36;;;;;;;2.10;1.20;;;;;;;;;;5094172;28;20068;-78
2023/07/19 02:36:02;;;;;;;1.52;1.30;;;;;;;;;;5095476;28;20073;-78
2023/07/19 02:38:28;;;;;;;2.28;1.40;;;;;;;;;;5094625;28;20043;-78
2023/07/19 02:41:00;;;;;;;1.98;1.60;;;;;;;;;;5094195;28;20028;-79
2023/07/19 02:43:27;;;;;;;2.08;1.48;;;;;;;;;;5094472;28;20398;-78
2023/07/19 02:45:53;;;;;;;3.67;1.60;;;;;;;;;;5094143;28;20467;-79
2023/07/19 02:48:19;;;;;;;5.70;1.70;;;;;;;;;;5095820;28;20123;-78
2023/07/19 02:50:45;;;;;;;3.15;1.45;;;;;;;;;;5093840;28;20059;-79
2023/07/19 02:53:11;;;;;;;2.17;1.55;;;;;;;;;;5076464;28;20039;-79
2023/07/19 02:55:36;;;;;;;1.73;1.60;;;;;;;;;;5095165;28;20035;-80
2023/07/19 02:58:01;;;;;;;3.38;1.63;;;;;;;;;;5095093;28;20109;-80
2023/07/19 03:00:27;;;;;;;2.17;1.40;;;;;;;;;;5093829;28;20036;-79
2023/07/19 03:02:53;;;;;;;4.15;1.00;;;;;;;;;;5095242;28;20031;-80
2023/07/19 03:05:20;;;;;;;1.95;1.30;;;;;;;;;;5076822;28;20020;-80
2023/07/19 03:07:45;;;;;;;2.58;1.40;;;;;;;;;;5076814;28;20478;-79
2023/07/19 03:10:11;;;;;;;3.78;1.40;;;;;;;;;;5093559;28;20039;-80
2023/07/19 03:12:36;;;;;;;1.85;1.25;;;;;;;;;;5094693;28;20035;-79
2023/07/19 03:15:02;;;;;;;4.13;1.48;;;;;;;;;;5094698;28;20471;-79
2023/07/19 03:17:27;;;;;;;1.20;1.10;;;;;;;;;;5093453;28;20028;-79
2023/07/19 03:19:52;;;;;;;2.65;1.50;;;;;;;;;;5093570;28;20081;-79
2023/07/19 03:22:18;;;;;;;1.77;1.05;;;;;;;;;;5077207;28;20089;-79
2023/07/19 03:24:43;;;;;;;1.85;1.30;;;;;;;;;;5076391;28;20465;-79
2023/07/19 03:27:09;;;;;;;1.80;1.30;;;;;;;;;;5093595;28;20038;-78
2023/07/19 03:29:34;;;;;;;1.80;1.30;;;;;;;;;;5094417;28;20043;-78
2023/07/19 03:31:59;;;;;;;1.40;1.30;;;;;;;;;;5076183;28;20102;-80
2023/07/19 03:34:25;;;;;;;2.05;1.50;;;;;;;;;;5094562;28;20475;-79
2023/07/19 03:36:50;;;;;;;3.83;1.60;;;;;;;;;;5094311;28;20031;-79
2023/07/19 03:39:16;;;;;;;1.98;1.60;;;;;;;;;;5093062;28;20569;-79
2023/07/19 03:41:41;;;;;;;1.77;1.42;;;;;;;;;;5093020;28;20103;-78
2023/07/19 03:44:06;;;;;;;1.60;1.40;;;;;;;;;;5094142;28;20019;-79
2023/07/19 03:46:32;;;;;;;1.98;1.40;;;;;;;;;;5094325;28;20117;-79
2023/07/19 03:48:57;;;;;;;1.70;1.33;;;;;;;;;;5094031;28;20148;-78
2023/07/19 03:51:23;;;;;;;2.22;1.55;;;;;;;;;;5076569;28;20053;-79
2023/07/19 03:53:48;;;;;;;1.70;1.40;;;;;;;;;;5092613;28;20056;-79
2023/07/19 03:56:13;;;;;;;1.77;1.42;;;;;;;;;;5092556;28;20032;-79
2023/07/19 03:58:40;;;;;;;1.50;1.40;;;;;;;;;;5109330;28;20129;-79
2023/07/19 04:01:06;;;;;;;1.90;1.42;;;;;;;;;;5092455;28;20035;-78
2023/07/19 04:03:32;;;;;;;1.88;1.40;;;;;;;;;;5092372;28;20028;-79
2023/07/19 04:05:58;;;;;;;2.13;1.60;;;;;;;;;;5075474;28;20123;-79
2023/07/19 04:08:24;;;;;;;1.60;1.35;;;;;;;;;;5093739;28;20391;-78
2023/07/19 04:10:50;;;;;;;2.33;1.50;;;;;;;;;;5093125;28;20028;-79
2023/07/19 04:13:15;;;;;;;3.47;1.52;;;;;;;;;;5093528;28;20029;-79
2023/07/19 04:15:40;;;;;;;2.08;1.80;;;;;;;;;;5093790;28;20459;-79
2023/07/19 04:18:06;;;;;;;2.35;1.67;;;;;;;;;;5092735;28;20034;-79
2023/07/19 04:20:32;;;;;;;1.80;1.40;;;;;;;;;;5092636;28;20028;-78
2023/07/19 04:22:58;;;;;;;2.28;1.67;;;;;;;;;;5094125;28;20028;-79
2023/07/19 04:25:24;;;;;;;3.65;1.40;;;;;;;;;;5092584;28;20387;-78
2023/07/19 04:27:53;;;;;;;5.18;1.63;;;;;;;;;;5092183;28;20074;-79
2023/07/19 04:30:18;;;;;;;3.63;1.60;;;;;;;;;;5092353;28;20028;-78
2023/07/19 04:32:43;;;;;;;3.88;1.75;;;;;;;;;;5092710;28;20381;-78
2023/07/19 04:35:09;;;;;;;2.95;1.50;;;;;;;;;;5092193;28;20028;-75
2023/07/19 04:37:35;;;;;;;2.25;1.50;;;;;;;;;;5092600;28;20479;-77
2023/07/19 04:40:01;;;;;;;4.70;1.73;;;;;;;;;;5075338;28;20089;-76
2023/07/19 04:42:28;;;;;;;6.32;1.88;;;;;;;;;;5092789;28;20382;-77
2023/07/19 04:44:53;;;;;;;2.92;1.75;;;;;;;;;;5092595;28;20020;-78
2023/07/19 04:47:19;;;;;;;4.53;2.10;;;;;;;;;;5092169;28;20383;-77
2023/07/19 04:49:45;;;;;;;3.83;1.67;;;;;;;;;;5075189;28;20115;-78
2023/07/19 04:52:10;;;;;;;2.33;1.70;;;;;;;;;;5093569;28;20471;-78
2023/07/19 04:54:36;;;;;;;4.75;2.10;;;;;;;;;;5075140;28;20034;-78
2023/07/19 04:57:01;;;;;;;3.72;1.95;;;;;;;;;;5091888;28;20052;-79
2023/07/19 04:59:26;;;;;;;2.95;1.75;;;;;;;;;;5092053;28;20047;-79
2023/07/19 05:01:52;;;;;;;3.95;1.80;;;;;;;;;;5075166;28;20040;-78
2023/07/19 05:04:18;;;;;;;5.18;1.98;;;;;;;;;;5091860;28;20489;-77
2023/07/19 05:06:43;;;;;;;3.70;1.83;;;;;;;;;;5093202;28;20024;-77
2023/07/19 05:09:09;;;;;;;4.65;2.20;;;;;;;;;;5091986;28;20036;-78
2023/07/19 05:11:35;;;;;;;8.18;2.67;;;;;;;;;;5092227;28;20433;-78
2023/07/19 05:14:00;;;;;;;18.92;4.88;;;;;;;;;;5091857;28;20094;-78
2023/07/19 05:16:26;;;;;;;22.17;6.88;;;;;;;;;;5095527;28;20028;-78
2023/07/19 05:18:52;;;;;;;29.05;6.22;;;;;;;;;;5095768;28;20032;-78
2023/07/19 05:21:17;;;;;;;18.42;5.82;;;;;;;;;;5097361;28;20035;-78
2023/07/19 05:23:43;;;;;;;15.77;4.95;;;;;;;;;;5094786;28;20024;-77
2023/07/19 05:26:09;;;;;;;11.43;4.13;;;;;;;;;;5057732;28;20098;-78
2023/07/19 05:28:34;;;;;;;9.50;3.78;;;;;;;;;;5058171;28;20032;-78
2023/07/19 05:31:02;;;;;;;14.88;3.70;;;;;;;;;;5055115;28;20025;-78
2023/07/19 05:33:27;;;;;;;8.73;3.17;;;;;;;;;;5056457;28;20506;-79
2023/07/19 05:35:53;;;;;;;11.60;3.95;;;;;;;;;;5075476;28;20029;-78
2023/07/19 05:38:18;;;;;;;10.27;3.55;;;;;;;;;;5076320;28;20430;-78
2023/07/19 05:40:43;;;;;;;5.82;2.78;;;;;;;;;;5058155;28;20024;-77
2023/07/19 05:43:09;;;;;;;9.63;3.13;;;;;;;;;;5076025;28;20081;-78
2023/07/19 05:45:35;;;;;;;5.53;2.50;;;;;;;;;;5076124;28;20476;-79
2023/07/19 05:48:00;;;;;;;9.70;2.78;;;;;;;;;;5074872;28;20436;-78
2023/07/19 05:50:27;;;;;;;4.32;2.30;;;;;;;;;;5058325;28;20131;-79
2023/07/19 05:52:53;;;;;;;7.50;2.60;;;;;;;;;;5074725;28;20479;-78
2023/07/19 05:55:19;;;;;;;8.38;2.53;;;;;;;;;;5074170;28;20041;-78
2023/07/19 05:57:44;;;;;;;4.07;2.20;;;;;;;;;;5074720;28;20094;-78
2023/07/19 06:00:19;;;;;;;4.90;2.25;;;;;;;;;;5074767;28;20045;-79
2023/07/19 06:02:44;;;;;;;6.45;1.90;;;;;;;;;;5057565;28;20152;-77
2023/07/19 06:05:09;;;;;;;5.57;2.20;;;;;;;;;;5075884;28;20032;-78
2023/07/19 06:07:35;;;;;;;5.82;2.63;;;;;;;;;;5075871;28;20124;-78
2023/07/19 06:10:01;;;;;;;3.30;2.00;;;;;;;;;;5057732;28;20045;-78
2023/07/19 06:12:27;;;;;;;4.25;2.28;;;;;;;;;;5057108;28;20387;-78
2023/07/19 06:14:52;;;;;;;7.05;1.88;;;;;;;;;;5075308;28;20506;-78
2023/07/19 06:17:18;;;;;;;2.47;1.55;;;;;;;;;;5090843;28;20032;-78
2023/07/19 06:19:43;;;;;;;3.92;1.80;;;;;;;;;;5094193;28;20036;-78
2023/07/19 06:22:09;;;;;;;4.43;2.00;;;;;;;;;;5093994;28;20028;-78
2023/07/19 06:24:34;;;;;;;4.18;2.25;;;;;;;;;;5093868;28;20360;-78
2023/07/19 06:26:59;;;;;;;4.25;2.17;;;;;;;;;;5075754;28;20032;-78
2023/07/19 06:29:25;;;;;;;2.85;1.80;;;;;;;;;;5095786;28;20039;-78
2023/07/19 06:31:50;;;;;;;6.03;1.65;;;;;;;;;;5077580;28;20035;-78
2023/07/19 06:34:15;;;;;;;8.60;2.13;;;;;;;;;;5094294;28;20500;-78
2023/07/19 06:36:41;;;;;;;3.03;1.63;;;;;;;;;;5110765;28;20035;-79
2023/07/19 06:39:06;;;;;;;4.75;2.05;;;;;;;;;;5093983;28;20024;-78
2023/07/19 06:41:32;;;;;;;5.82;2.33;;;;;;;;;;5095278;28;20084;-78
2023/07/19 06:43:57;;;;;;;3.33;1.83;;;;;;;;;;5094961;28;20024;-78
2023/07/19 06:46:22;;;;;;;3.53;1.67;;;;;;;;;;5094151;28;20036;-78
2023/07/19 06:48:48;;;;;;;2.70;1.80;;;;;;;;;;5093481;28;20039;-78
2023/07/19 06:51:13;;;;;;;3.75;1.92;;;;;;;;;;5095660;28;20028;-79
2023/07/19 06:53:39;;;;;;;5.55;2.22;;;;;;;;;;5093371;28;20585;-79
2023/07/19 06:56:05;;;;;;;3.85;1.63;;;;;;;;;;5076918;28;20036;-78
2023/07/19 06:58:30;;;;;;;3.13;1.65;;;;;;;;;;5094593;28;20064;-79
2023/07/19 07:00:56;;;;;;;3.25;1.52;;;;;;;;;;5093935;28;20047;-77
2023/07/19 07:03:22;;;;;;;3.22;1.50;;;;;;;;;;5076277;28;20046;-77
2023/07/19 07:05:47;;;;;;;2.90;1.50;;;;;;;;;;5093618;28;20024;-77
2023/07/19 07:08:13;;;;;;;2.60;1.40;;;;;;;;;;5094678;28;20035;-77
2023/07/19 07:10:41;;;;;;;4.72;1.10;;;;;;;;;;5093691;28;20024;-77
2023/07/19 07:13:06;;;;;;;3.38;1.20;;;;;;;;;;5094627;28;20032;-77
2023/07/19 07:15:32;;;;;;;2.67;1.27;;;;;;;;;;5093367;28;20551;-78
2023/07/19 07:17:57;;;;;;;2.70;1.25;;;;;;;;;;5093117;28;20055;-77
2023/07/19 07:20:22;;;;;;;2.75;1.30;;;;;;;;;;5094567;28;20044;-77
2023/07/19 07:22:48;;;;;;;3.30;1.40;;;;;;;;;;5093038;28;20028;-77
2023/07/19 07:25:13;;;;;;;4.22;1.60;;;;;;;;;;5094444;28;20475;-78
2023/07/19 07:27:39;;;;;;;2.20;1.30;;;;;;;;;;5094278;28;20391;-78
2023/07/19 07:30:08;;;;;;;2.38;1.02;;;;;;;;;;5093172;28;20107;-78
2023/07/19 07:32:34;;;;;;;4.53;1.10;;;;;;;;;;5094108;28;20031;-77
2023/07/19 07:34:59;;;;;;;1.98;1.40;;;;;;;;;;5093971;28;20038;-77
2023/07/19 07:37:25;;;;;;;1.55;1.10;;;;;;;;;;5092768;28;20501;-77
2023/07/19 07:39:50;;;;;;;1.42;1.00;;;;;;;;;;5075928;28;20032;-77
2023/07/19 07:42:15;;;;;;;2.03;1.02;;;;;;;;;;5092518;28;20024;-77
2023/07/19 07:44:41;;;;;;;1.60;0.80;;;;;;;;;;5092790;28;20409;-77
2023/07/19 07:47:07;;;;;;;3.88;1.08;;;;;;;;;;5094024;28;20117;-77
2023/07/19 07:49:33;;;;;;;1.02;0.93;;;;;;;;;;5052922;28;20384;-77
2023/07/19 07:51:59;;;;;;;4.05;1.23;;;;;;;;;;5053826;28;20025;-77
2023/07/19 07:54:24;;;;;;;2.83;1.00;;;;;;;;;;5072195;28;20039;-77
2023/07/19 07:56:50;;;;;;;1.85;0.88;;;;;;;;;;5073457;28;20024;-77
2023/07/19 07:59:15;;;;;;;2.38;1.17;;;;;;;;;;5072305;28;20395;-77
2023/07/19 08:01:41;;;;;;;5.15;1.35;;;;;;;;;;5073402;28;20040;-77
2023/07/19 08:04:09;;;;;;;3.50;1.00;;;;;;;;;;5073500;28;20510;-77
2023/07/19 08:06:35;;;;;;;5.97;1.10;;;;;;;;;;5055836;28;20036;-77
2023/07/19 08:09:01;;;;;;;2.58;0.93;;;;;;;;;;5072128;28;20032;-77
2023/07/19 08:11:26;;;;;;;2.10;0.82;;;;;;;;;;5073371;28;20028;-77
2023/07/19 08:13:53;;;;;;;4.15;1.00;;;;;;;;;;5073428;28;20060;-77
2023/07/19 08:16:18;;;;;;;4.88;1.25;;;;;;;;;;5073298;28;20035;-77
2023/07/19 08:18:44;;;;;;;4.70;1.27;;;;;;;;;;5071867;28;20115;-77
2023/07/19 08:21:09;;;;;;;3.08;1.00;;;;;;;;;;5073836;28;20051;-78
2023/07/19 08:23:34;;;;;;;1.90;1.02;;;;;;;;;;5055276;28;20379;-78
2023/07/19 08:26:00;;;;;;;1.45;0.90;;;;;;;;;;5071961;28;20036;-78
2023/07/19 08:28:25;;;;;;;3.92;1.10;;;;;;;;;;5073087;28;20033;-78
2023/07/19 08:30:54;;;;;;;3.40;1.25;;;;;;;;;;5071920;28;20033;-79
2023/07/19 08:33:21;;;;;;;3.85;1.10;;;;;;;;;;5071783;28;20475;-79
2023/07/19 08:35:46;;;;;;;1.75;1.02;;;;;;;;;;5072069;28;20490;-79
2023/07/19 08:38:12;;;;;;;2.33;0.98;;;;;;;;;;5072201;28;20025;-78
2023/07/19 08:40:38;;;;;;;2.95;1.20;;;;;;;;;;5073167;28;20029;-78
2023/07/19 08:43:07;;;;;;;2.70;1.10;;;;;;;;;;5072014;28;20028;-78
2023/07/19 08:45:37;;;;;;;2.70;1.05;;;;;;;;;;5072517;28;20367;-79
2023/07/19 08:48:03;;;;;;;13.93;1.17;;;;;;;;;;5071961;28;20020;-78
2023/07/19 08:50:29;;;;;;;5.20;1.60;;;;;;;;;;5074872;28;20033;-79
2023/07/19 08:52:54;;;;;;;5.53;1.95;;;;;;;;;;5059246;28;20138;-79
2023/07/19 08:55:23;;;;;;;3.38;1.48;;;;;;;;;;5075730;28;20103;-79
2023/07/19 08:57:48;;;;;;;7.78;1.45;;;;;;;;;;5075947;28;20574;-79
2023/07/19 09:00:17;;;;;;;2.55;1.00;;;;;;;;;;5075880;28;20112;-79
2023/07/19 09:02:43;;;;;;;3.05;1.27;;;;;;;;;;5059338;28;20110;-78
2023/07/19 09:05:10;;;;;;;2.17;1.23;;;;;;;;;;5077039;28;20493;-77
2023/07/19 09:07:38;;;;;;;5.03;1.08;;;;;;;;;;5075628;28;20036;-77
2023/07/19 09:10:05;;;;;;;2.97;1.33;;;;;;;;;;5058919;28;20028;-79
2023/07/19 09:12:41;;;;;;;10.70;1.65;;;;;;;;;;5059081;28;20082;-78
2023/07/19 09:15:08;;;;;;;5.47;1.30;;;;;;;;;;5075628;28;20387;-78
2023/07/19 09:17:40;;;;;;;3.45;1.40;;;;;;;;;;5093104;28;20024;-77
2023/07/19 09:20:06;;;;;;;2.75;1.20;;;;;;;;;;5095667;28;20062;-77
2023/07/19 09:22:34;;;;;;;2.47;1.10;;;;;;;;;;5096793;28;20108;-77
2023/07/19 09:25:03;;;;;;;2.63;1.38;;;;;;;;;;5097414;28;20489;-78
2023/07/19 09:27:29;;;;;;;2.05;1.10;;;;;;;;;;5079148;28;20043;-77
2023/07/19 09:29:55;;;;;;;1.38;0.90;;;;;;;;;;5096823;28;20050;-77
2023/07/19 09:32:22;;;;;;;1.60;1.15;;;;;;;;;;5078649;28;20471;-77
2023/07/19 09:34:47;;;;;;;4.22;1.77;;;;;;;;;;5078661;28;20063;-77
2023/07/19 09:37:12;;;;;;;1.90;1.27;;;;;;;;;;5096668;28;20486;-78
2023/07/19 09:39:38;;;;;;;7.25;1.40;;;;;;;;;;5095669;28;20153;-77
2023/07/19 09:42:04;;;;;;;3.05;1.42;;;;;;;;;;5078475;28;20060;-79
2023/07/19 09:44:30;;;;;;;5.00;1.35;;;;;;;;;;5078321;28;20034;-77
2023/07/19 09:47:00;;;;;;;6.10;1.50;;;;;;;;;;5078015;28;20102;-78
2023/07/19 09:49:25;;;;;;;3.45;1.17;;;;;;;;;;5077806;28;20043;-77
2023/07/19 09:51:51;;;;;;;5.97;1.30;;;;;;;;;;5061572;28;20028;-78
2023/07/19 09:54:17;;;;;;;4.63;1.50;;;;;;;;;;5095120;28;20043;-78
2023/07/19 09:56:43;;;;;;;2.30;1.30;;;;;;;;;;5077699;28;20036;-80
2023/07/19 09:59:13;;;;;;;11.68;1.42;;;;;;;;;;5094554;28;20052;-78
2023/07/19 10:01:39;;;;;;;2.70;1.75;;;;;;;;;;5095064;28;20478;-79
2023/07/19 10:04:24;;;;;;;2.20;1.10;;;;;;;;;;5094541;28;20050;-78
2023/07/19 10:07:07;;;;;;;2.20;1.27;;;;;;;;;;5078655;28;20413;-78
2023/07/19 10:09:36;;;;;;;3.28;1.25;;;;;;;;;;5096325;28;20020;-78
2023/07/19 10:12:26;;;;;;;4.55;1.27;;;;;;;;;;5094867;28;20031;-78
2023/07/19 10:14:56;;;;;;;3.30;1.20;;;;;;;;;;5095515;28;20483;-78
2023/07/19 10:17:22;;;;;;;4.18;1.60;;;;;;;;;;5094811;28;20115;-77
2023/07/19 10:20:07;;;;;;;4.78;1.48;;;;;;;;;;5094671;28;20050;-77
2023/07/19 10:23:08;;;;;;;1.60;0.98;;;;;;;;;;5077785;28;20482;-78
2023/07/19 10:25:49;;;;;;;2.30;1.35;;;;;;;;;;5013953;28;20409;-78
2023/07/19 10:28:35;;;;;;;4.78;1.17;;;;;;;;;;4997342;28;20121;-78
2023/07/19 10:31:03;;;;;;;4.93;1.38;;;;;;;;;;4997001;28;20034;-78
2023/07/19 10:33:30;;;;;;;1.52;1.08;;;;;;;;;;5013574;28;20172;-78
2023/07/19 10:36:04;;;;;;;2.53;1.20;;;;;;;;;;5013756;28;20512;-77
2023/07/19 10:38:30;;;;;;;;;;;;;;;;;;5014309;28;20040;-77
2023/07/19 10:41:07;;;;;;;3.50;1.30;;;;;;;;;;4997015;28;19917;-78
2023/07/19 10:43:35;;;;;;;1.83;1.08;;;;;;;;;;5014016;28;20034;-77
2023/07/19 10:46:06;;;;;;;2.35;1.30;;;;;;;;;;5013818;28;20046;-76
2023/07/19 10:48:36;;;;;;;3.38;1.40;;;;;;;;;;5013401;28;20076;-79
2023/07/19 10:51:03;;;;;;;8.80;1.30;;;;;;;;;;5013456;28;20052;-80
2023/07/19 10:53:32;;;;;;;4.07;1.30;;;;;;;;;;4996756;28;20042;-79
2023/07/19 10:55:58;;;;;;;3.30;1.42;;;;;;;;;;4996941;28;20508;-80
2023/07/19 10:58:24;;;;;;;7.15;1.38;;;;;;;;;;5016504;28;20057;-78
2023/07/19 11:00:51;;;;;;;3.28;1.23;;;;;;;;;;5094080;28;20114;-81
2023/07/19 11:03:17;;;;;;;6.55;1.50;;;;;;;;;;5076766;28;20521;-82
2023/07/19 11:05:47;;;;;;;5.80;1.60;;;;;;;;;;5093773;28;20023;-81
2023/07/19 11:08:22;;;;;;;2.58;1.40;;;;;;;;;;5093608;28;20028;-81
2023/07/19 11:10:51;;;;;;;3.60;1.20;;;;;;;;;;5096836;28;20088;-80
2023/07/19 11:13:18;;;;;;;4.70;1.58;;;;;;;;;;5093313;28;20040;-82
2023/07/19 11:15:48;;;;;;;3.80;1.48;;;;;;;;;;5076556;28;20483;-79
2023/07/19 11:18:44;;;;;;;4.07;1.60;;;;;;;;;;5093578;28;20036;-80
2023/07/19 11:21:10;;;;;;;4.32;1.77;;;;;;;;;;5093461;28;20085;-81
2023/07/19 11:23:44;;;;;;;6.70;1.40;;;;;;;;;;5094642;28;20027;-80
2023/07/19 11:26:13;;;;;;;2.45;1.30;;;;;;;;;;5094605;28;20487;-80
2023/07/19 11:28:44;;;;;;;2.70;1.30;;;;;;;;;;5093612;28;20035;-80
2023/07/19 11:31:11;;;;;;;7.15;1.50;;;;;;;;;;5093290;28;20023;-81
2023/07/19 11:33:39;;;;;;;2.67;1.30;;;;;;;;;;5093587;28;20028;-82
2023/07/19 11:36:09;;;;;;;9.07;1.40;;;;;;;;;;5093194;28;20076;-81
2023/07/19 11:38:38;;;;;;;2.75;1.70;;;;;;;;;;5094748;28;20465;-82
2023/07/19 11:41:03;;;;;;;6.70;2.15;;;;;;;;;;5076415;28;20402;-81
2023/07/19 11:43:29;;;;;;;4.00;1.50;;;;;;;;;;5093161;28;20032;-80
2023/07/19 11:45:56;;;;;;;3.33;1.50;;;;;;;;;;5093378;28;20019;-80
2023/07/19 11:48:22;;;;;;;1.75;1.15;;;;;;;;;;5094438;28;20024;-79
2023/07/19 11:50:48;;;;;;;4.85;1.60;;;;;;;;;;5094457;28;20035;-82
2023/07/19 11:53:13;;;;;;;2.47;1.20;;;;;;;;;;5093180;28;20363;-80
2023/07/19 11:55:39;;;;;;;2.00;1.20;;;;;;;;;;5094333;28;20028;-81
2023/07/19 11:58:05;;;;;;;3.05;1.38;;;;;;;;;;5092753;28;20044;-81
2023/07/19 12:00:32;;;;;;;10.13;1.38;;;;;;;;;;5093249;28;20081;-82
2023/07/19 12:02:57;;;;;;;2.95;1.38;;;;;;;;;;5092603;28;20028;-82
2023/07/19 12:05:24;;;;;;;2.63;1.25;;;;;;;;;;5092730;28;20448;-83
2023/07/19 12:07:51;;;;;;;2.75;1.30;;;;;;;;;;5094256;28;20386;-82
2023/07/19 12:10:17;;;;;;;2.45;1.02;;;;;;;;;;5075798;28;20394;-81
2023/07/19 12:12:44;;;;;;;3.78;1.33;;;;;;;;;;5092631;28;20020;-80
2023/07/19 12:15:11;;;;;;;3.35;1.20;;;;;;;;;;5078710;28;20046;-81
2023/07/19 12:17:37;;;;;;;1.75;1.20;;;;;;;;;;5072808;28;20028;-81
2023/07/19 12:20:04;;;;;;;3.75;1.23;;;;;;;;;;5072870;28;20037;-82
2023/07/19 12:22:30;;;;;;;3.28;1.33;;;;;;;;;;5072579;28;20518;-81
2023/07/19 12:24:58;;;;;;;5.57;1.30;;;;;;;;;;5056563;28;20048;-81
2023/07/19 12:27:23;;;;;;;4.90;1.48;;;;;;;;;;5078276;28;20021;-81
2023/07/19 12:29:49;;;;;;;3.30;1.40;;;;;;;;;;5055574;28;20035;-81
2023/07/19 12:32:15;;;;;;;3.65;1.23;;;;;;;;;;5055552;28;20039;-82
2023/07/19 12:34:40;;;;;;;2.33;1.38;;;;;;;;;;5072027;28;20029;-81
2023/07/19 12:37:06;;;;;;;2.13;1.13;;;;;;;;;;5072071;28;20028;-82
2023/07/19 12:39:32;;;;;;;1.55;1.08;;;;;;;;;;5072189;28;20475;-82
2023/07/19 12:41:58;;;;;;;3.80;1.48;;;;;;;;;;5073275;28;20498;-82
2023/07/19 12:44:24;;;;;;;3.17;1.55;;;;;;;;;;5055073;28;20024;-84
2023/07/19 12:46:49;;;;;;;2.28;1.20;;;;;;;;;;5071832;28;20099;-83
2023/07/19 12:49:21;;;;;;;2.90;1.15;;;;;;;;;;5071892;28;20446;-82
2023/07/19 12:51:47;;;;;;;3.78;1.50;;;;;;;;;;5073879;28;20463;-82
2023/07/19 12:54:12;;;;;;;1.77;1.20;;;;;;;;;;5071828;28;20103;-83
2023/07/19 12:56:39;;;;;;;4.30;1.35;;;;;;;;;;5072197;28;20060;-82
2023/07/19 12:59:04;;;;;;;3.05;1.35;;;;;;;;;;5072093;28;20495;-83
2023/07/19 13:01:30;;;;;;;1.85;1.33;;;;;;;;;;5073760;28;20036;-83
2023/07/19 13:03:55;;;;;;;2.42;1.15;;;;;;;;;;5073258;28;20035;-83
2023/07/19 13:06:21;;;;;;;2.20;1.00;;;;;;;;;;5073224;28;20039;-83
2023/07/19 13:08:47;;;;;;;3.03;1.65;;;;;;;;;;5073252;28;20035;-84
2023/07/19 13:11:12;;;;;;;2.72;1.38;;;;;;;;;;5071666;28;20016;-82
2023/07/19 13:13:38;;;;;;;2.17;1.00;;;;;;;;;;5072859;28;20039;-82
2023/07/19 13:16:04;;;;;;;1.90;1.20;;;;;;;;;;5072741;28;20128;-82
2023/07/19 13:18:30;;;;;;;2.95;1.13;;;;;;;;;;5072102;28;20024;-82
2023/07/19 13:20:56;;;;;;;1.08;0.93;;;;;;;;;;5072033;28;20482;-82
2023/07/19 13:23:21;;;;;;;2.70;1.00;;;;;;;;;;5071597;28;20119;-83
2023/07/19 13:25:47;;;;;;;2.33;1.08;;;;;;;;;;5071771;28;20079;-82
2023/07/19 13:28:12;;;;;;;2.40;1.20;;;;;;;;;;5071379;28;20124;-82
2023/07/19 13:30:37;;;;;;;1.50;1.10;;;;;;;;;;5054987;28;20039;-85
2023/07/19 13:33:03;;;;;;;1.83;1.20;;;;;;;;;;5072061;28;20041;-82
2023/07/19 13:35:29;;;;;;;3.13;1.10;;;;;;;;;;5071977;28;20028;-83
2023/07/19 13:37:54;;;;;;;1.63;0.95;;;;;;;;;;5058264;28;20098;-80
2023/07/19 13:40:20;;;;;;;3.05;1.17;;;;;;;;;;5075154;28;20092;-83
2023/07/19 13:42:45;;;;;;;2.95;1.20;;;;;;;;;;5075182;28;20517;-83
2023/07/19 13:45:11;;;;;;;1.75;1.10;;;;;;;;;;5076142;28;20052;-83
2023/07/19 13:47:36;;;;;;;2.05;1.10;;;;;;;;;;5076309;28;20024;-82
2023/07/19 13:50:02;;;;;;;2.22;1.23;;;;;;;;;;5076313;28;20036;-83
2023/07/19 13:52:27;;;;;;;2.50;1.20;;;;;;;;;;5041488;28;20071;-82
2023/07/19 13:54:53;;;;;;;1.45;1.23;;;;;;;;;;5075929;28;20029;-82
2023/07/19 13:57:18;;;;;;;3.75;1.20;;;;;;;;;;5076000;28;20048;-82
2023/07/19 13:59:43;;;;;;;2.38;1.30;;;;;;;;;;5076020;28;20061;-82
2023/07/19 14:02:10;;;;;;;3.13;1.15;;;;;;;;;;5076039;28;20031;-82
2023/07/19 14:04:35;;;;;;;2.90;1.25;;;;;;;;;;5074771;28;20498;-82
2023/07/19 14:07:01;;;;;;;2.75;1.20;;;;;;;;;;5057655;28;20037;-82
2023/07/19 14:09:26;;;;;;;1.92;1.10;;;;;;;;;;5074555;28;20070;-83
2023/07/19 14:11:52;;;;;;;2.97;1.10;;;;;;;;;;5074197;28;20107;-83
2023/07/19 14:14:17;;;;;;;3.10;1.10;;;;;;;;;;5073782;28;20057;-83
2023/07/19 14:16:43;;;;;;;1.48;1.20;;;;;;;;;;5074161;28;20032;-82
2023/07/19 14:19:08;;;;;;;3.67;1.42;;;;;;;;;;5057188;28;20031;-82
2023/07/19 14:21:34;;;;;;;3.10;2.75;;;;;;;;;;5074504;28;20082;-80
2023/07/19 14:24:00;;;;;;;4.95;3.70;;;;;;;;;;5076672;28;20032;-84
2023/07/19 14:26:26;;;;;;;5.72;3.63;;;;;;;;;;5074397;28;20511;-83
2023/07/19 14:28:52;;;;;;;4.53;3.58;;;;;;;;;;5073976;28;20103;-82
2023/07/19 14:31:17;;;;;;;4.80;3.67;;;;;;;;;;5057070;28;20066;-81
2023/07/19 14:33:43;;;;;;;7.85;2.97;;;;;;;;;;5075013;28;20456;-81
2023/07/19 14:36:10;;;;;;;5.15;2.70;;;;;;;;;;5075588;28;20033;-82
2023/07/19 14:38:36;;;;;;;3.17;2.30;;;;;;;;;;5074292;28;20032;-82